YBBN/BNE METAR and TAF weather

Enter ICAO airport designator
Station Type Date Time Source
YBBN METAR 2020/01/28 11:30 UTC NOAA

YBBN 281130Z 02010KT 9999 BKN022 26/22 Q1014 NOSIG


Station Type Date Time Source
YBBN Decoded METAR 2020/01/28 11:30 UTC NOAA

Brisbane Airport M. O, Australia (YBBN) 27-23S 153-06E 5M
Jan 28, 2020 - 06:30 AM EST / 2020.01.28 1130 UTC
Wind: from the NNE (020 degrees) at 12 MPH (10 KT):0
Visibility: greater than 7 mile(s):0
Sky conditions: mostly cloudy
Temperature: 78 F (26 C)
Dew Point: 71 F (22 C)
Relative Humidity: 78%
Pressure (altimeter): 29.94 in. Hg (1014 hPa)
ob: YBBN 281130Z 02010KT 9999 BKN022 26/22 Q1014 NOSIG
cycle: 11

Station Type Date Time Source
YBBN TAF 2020/01/28 12:33 UTC NOAA

TAF YBBN 281106Z 2812/2918 02007KT 9999 BKN020
FM281500 31005KT 9999 SCT020
FM282200 34008KT 9999 SCT030
FM290200 03014KT 9999 FEW030
FM291000 05007KT 9999 BKN020

Example: see airport list